Time;durP1;ratioP1;P1;durP2;ratioP2;P2;SDS_P1;SDS_P2;PMS_P1;PMS_P2;Temp;Humidity;BMP_temperature;BMP_pressure;BME280_temperature;BME280_humidity;BME280_pressure;Samples;Min_cycle;Max_cycle;Signal;HPM_P1;HPM_P2
2022/01/02 00:00:33;;;;;;;7.13;4.95;;;;;;;;;;5078708;28;20189;-68
2022/01/02 00:03:01;;;;;;;8.75;5.30;;;;;;;;;;5076336;28;20225;-68
2022/01/02 00:05:29;;;;;;;8.27;5.43;;;;;;;;;;5114349;22;20313;-74
2022/01/02 00:08:02;;;;;;;9.25;4.93;;;;;;;;;;5093972;27;20174;-73
2022/01/02 00:10:30;;;;;;;7.13;5.70;;;;;;;;;;5114014;27;20780;-73
2022/01/02 00:12:59;;;;;;;8.63;5.25;;;;;;;;;;5112386;27;20175;-74
2022/01/02 00:15:26;;;;;;;9.65;5.30;;;;;;;;;;5101231;27;20206;-73
2022/01/02 00:17:53;;;;;;;7.43;5.35;;;;;;;;;;5109085;27;20513;-74
2022/01/02 00:20:31;;;;;;;10.75;6.55;;;;;;;;;;5121173;27;20206;-73
2022/01/02 00:22:56;;;;;;;8.07;5.53;;;;;;;;;;5095204;27;20171;-75
2022/01/02 00:25:27;;;;;;;7.63;5.35;;;;;;;;;;5095539;27;20199;-72
2022/01/02 00:27:52;;;;;;;9.10;5.03;;;;;;;;;;5092794;28;20183;-73
2022/01/02 00:30:18;;;;;;;9.93;5.85;;;;;;;;;;5111740;27;20179;-72
2022/01/02 00:32:44;;;;;;;8.57;5.43;;;;;;;;;;5112865;27;20194;-74
2022/01/02 00:35:09;;;;;;;10.55;5.38;;;;;;;;;;5089960;27;20335;-72
2022/01/02 00:37:34;;;;;;;9.73;5.68;;;;;;;;;;5107963;27;20179;-74
2022/01/02 00:39:59;;;;;;;10.57;5.82;;;;;;;;;;5112112;28;20199;-72
2022/01/02 00:42:34;;;;;;;10.30;5.45;;;;;;;;;;5111800;28;20205;-73
2022/01/02 00:45:04;;;;;;;9.53;5.63;;;;;;;;;;5113146;28;20202;-72
2022/01/02 00:47:35;;;;;;;8.75;5.70;;;;;;;;;;5113688;28;20831;-74
2022/01/02 00:50:11;;;;;;;11.68;6.20;;;;;;;;;;5095222;28;20181;-74
2022/01/02 00:52:38;;;;;;;10.35;6.25;;;;;;;;;;5111408;28;20440;-73
2022/01/02 00:55:05;;;;;;;8.38;5.47;;;;;;;;;;5110616;28;20210;-74
2022/01/02 00:57:32;;;;;;;7.53;5.20;;;;;;;;;;5110071;28;20222;-72
2022/01/02 01:00:05;;;;;;;8.88;5.68;;;;;;;;;;5113908;27;20261;-73
2022/01/02 01:02:47;;;;;;;10.82;5.85;;;;;;;;;;5113072;27;20224;-73
2022/01/02 01:05:17;;;;;;;12.55;6.10;;;;;;;;;;5114839;27;20210;-72
2022/01/02 01:07:42;;;;;;;12.73;5.40;;;;;;;;;;5119251;27;20715;-73
2022/01/02 01:10:11;;;;;;;7.18;5.10;;;;;;;;;;5112970;27;20182;-73
2022/01/02 01:12:36;;;;;;;10.83;6.23;;;;;;;;;;5115191;27;20522;-73
2022/01/02 01:15:02;;;;;;;12.80;5.60;;;;;;;;;;5117749;27;20203;-73
2022/01/02 01:17:28;;;;;;;9.83;5.97;;;;;;;;;;5118316;27;20290;-74
2022/01/02 01:19:53;;;;;;;10.87;5.80;;;;;;;;;;5132200;27;20197;-73
2022/01/02 01:22:19;;;;;;;12.20;5.88;;;;;;;;;;5126915;27;20171;-73
2022/01/02 01:24:44;;;;;;;10.63;5.53;;;;;;;;;;5114264;27;20207;-73
2022/01/02 01:27:10;;;;;;;10.95;5.60;;;;;;;;;;5116126;27;20182;-74
2022/01/02 01:29:36;;;;;;;11.15;6.03;;;;;;;;;;5114394;27;20179;-73
2022/01/02 01:32:02;;;;;;;13.27;5.78;;;;;;;;;;5116744;27;20230;-73
2022/01/02 01:34:27;;;;;;;11.63;5.75;;;;;;;;;;5111646;27;20210;-73
2022/01/02 01:36:53;;;;;;;11.85;5.95;;;;;;;;;;5112817;27;20545;-73
2022/01/02 01:39:18;;;;;;;13.10;5.75;;;;;;;;;;5104865;27;20438;-73
2022/01/02 01:41:43;;;;;;;15.35;5.40;;;;;;;;;;5115649;27;20266;-73
2022/01/02 01:46:37;;;;;;;11.30;5.55;;;;;;;;;;5115261;27;20624;-73
2022/01/02 01:49:13;;;;;;;13.75;4.95;;;;;;;;;;5123572;27;20171;-73
2022/01/02 01:51:38;;;;;;;11.70;5.22;;;;;;;;;;5115980;27;20238;-73
2022/01/02 01:54:03;;;;;;;11.52;5.78;;;;;;;;;;5113349;27;20203;-73
2022/01/02 01:56:28;;;;;;;13.07;5.47;;;;;;;;;;5115639;27;20175;-73
2022/01/02 01:58:53;;;;;;;16.77;6.07;;;;;;;;;;5115770;27;20656;-73
2022/01/02 02:01:18;;;;;;;13.52;4.75;;;;;;;;;;5123575;27;20209;-73
2022/01/02 02:03:44;;;;;;;13.00;5.57;;;;;;;;;;5117388;27;20190;-74
2022/01/02 02:06:09;;;;;;;16.10;5.18;;;;;;;;;;5112892;27;20204;-73
2022/01/02 02:08:36;;;;;;;9.73;5.18;;;;;;;;;;5114830;27;20197;-73
2022/01/02 02:11:01;;;;;;;12.55;4.88;;;;;;;;;;5097575;27;20206;-73
2022/01/02 02:13:26;;;;;;;13.13;4.72;;;;;;;;;;5091492;27;20206;-72
2022/01/02 02:15:51;;;;;;;13.20;5.13;;;;;;;;;;5089965;27;20289;-74
2022/01/02 02:18:17;;;;;;;11.20;5.03;;;;;;;;;;5096472;27;20180;-73
2022/01/02 02:20:42;;;;;;;10.95;4.75;;;;;;;;;;5096047;27;20187;-74
2022/01/02 02:23:08;;;;;;;10.68;4.80;;;;;;;;;;5117180;27;20319;-73
2022/01/02 02:25:34;;;;;;;10.73;4.20;;;;;;;;;;5114751;27;20214;-73
2022/01/02 02:28:13;;;;;;;9.18;4.45;;;;;;;;;;5096742;27;20184;-74
2022/01/02 02:30:39;;;;;;;10.30;5.80;;;;;;;;;;5112388;27;20187;-74
2022/01/02 02:33:06;;;;;;;8.20;4.70;;;;;;;;;;5098728;27;20179;-73
2022/01/02 02:35:32;;;;;;;13.90;5.25;;;;;;;;;;5127594;27;20245;-73
2022/01/02 02:37:57;;;;;;;10.60;4.70;;;;;;;;;;5130855;27;20175;-73
2022/01/02 02:40:25;;;;;;;10.55;4.15;;;;;;;;;;5127789;27;20182;-73
2022/01/02 02:42:54;;;;;;;7.53;4.30;;;;;;;;;;5126781;27;20812;-72
2022/01/02 02:51:01;;;;;;;12.80;5.10;;;;;;;;;;5110582;27;20239;-73
2022/01/02 02:53:26;;;;;;;11.85;5.07;;;;;;;;;;5091946;27;20551;-73
2022/01/02 02:55:56;;;;;;;8.10;4.43;;;;;;;;;;5111690;27;20199;-73
2022/01/02 03:00:59;;;;;;;13.70;5.45;;;;;;;;;;5112636;27;20178;-72
2022/01/02 03:03:24;;;;;;;8.05;4.20;;;;;;;;;;5115757;27;20188;-72
2022/01/02 03:05:50;;;;;;;12.20;4.85;;;;;;;;;;5112788;27;20190;-75
2022/01/02 03:08:15;;;;;;;12.05;5.35;;;;;;;;;;5111292;27;20258;-75
2022/01/02 03:10:41;;;;;;;15.25;4.22;;;;;;;;;;5093881;27;20758;-73
2022/01/02 03:13:06;;;;;;;9.07;3.78;;;;;;;;;;5113584;27;20194;-72
2022/01/02 03:15:31;;;;;;;10.32;4.85;;;;;;;;;;5126752;27;20293;-74
2022/01/02 03:17:56;;;;;;;12.98;4.55;;;;;;;;;;5122819;27;20190;-73
2022/01/02 03:20:21;;;;;;;10.20;4.05;;;;;;;;;;5140541;27;20216;-73
2022/01/02 03:22:47;;;;;;;8.63;4.47;;;;;;;;;;5137022;27;20538;-74
2022/01/02 03:25:14;;;;;;;10.32;4.50;;;;;;;;;;5123152;27;20186;-73
2022/01/02 03:27:39;;;;;;;11.48;4.32;;;;;;;;;;5139411;27;20182;-74
2022/01/02 03:30:05;;;;;;;11.95;4.55;;;;;;;;;;5122113;27;20178;-74
2022/01/02 03:32:30;;;;;;;15.20;5.28;;;;;;;;;;5135235;27;20198;-75
2022/01/02 03:34:55;;;;;;;9.82;4.20;;;;;;;;;;5113411;27;20214;-74
2022/01/02 03:37:21;;;;;;;8.02;4.05;;;;;;;;;;5094006;27;20570;-74
2022/01/02 03:39:46;;;;;;;12.93;4.45;;;;;;;;;;5117546;27;20561;-74
2022/01/02 03:42:11;;;;;;;13.32;4.38;;;;;;;;;;5111434;27;20191;-74
2022/01/02 03:44:37;;;;;;;8.98;4.43;;;;;;;;;;5108747;27;20202;-74
2022/01/02 03:47:02;;;;;;;9.70;4.07;;;;;;;;;;5115586;27;20175;-74
2022/01/02 03:49:27;;;;;;;10.25;4.50;;;;;;;;;;5119970;27;20179;-73
2022/01/02 03:51:52;;;;;;;7.47;3.70;;;;;;;;;;5102617;27;20263;-74
2022/01/02 03:54:18;;;;;;;9.48;3.85;;;;;;;;;;5112023;27;20230;-73
2022/01/02 03:56:44;;;;;;;10.40;3.60;;;;;;;;;;5112631;27;20199;-74
2022/01/02 03:59:11;;;;;;;6.65;3.63;;;;;;;;;;5092372;27;20294;-74
2022/01/02 04:01:36;;;;;;;7.38;3.38;;;;;;;;;;5092194;27;20171;-72
2022/01/02 04:04:01;;;;;;;11.63;5.28;;;;;;;;;;5116446;27;20956;-72
2022/01/02 04:06:26;;;;;;;12.63;4.22;;;;;;;;;;5111149;27;20182;-74
2022/01/02 04:08:52;;;;;;;12.98;3.25;;;;;;;;;;5113172;27;20187;-75
2022/01/02 04:11:17;;;;;;;11.55;4.60;;;;;;;;;;5112182;27;20176;-73
2022/01/02 04:13:42;;;;;;;8.65;3.08;;;;;;;;;;5111211;27;20218;-72
2022/01/02 04:16:07;;;;;;;9.02;3.33;;;;;;;;;;5110202;27;20309;-72
2022/01/02 04:18:32;;;;;;;8.00;3.20;;;;;;;;;;5112594;27;20192;-72
2022/01/02 04:20:57;;;;;;;9.98;3.95;;;;;;;;;;5095161;27;20183;-73
2022/01/02 04:23:23;;;;;;;10.02;4.75;;;;;;;;;;5111829;27;20178;-73
2022/01/02 04:25:48;;;;;;;8.23;3.58;;;;;;;;;;5110839;27;20623;-72
2022/01/02 04:28:13;;;;;;;7.28;3.33;;;;;;;;;;5111607;27;20266;-74
2022/01/02 04:30:38;;;;;;;10.73;3.65;;;;;;;;;;5106853;27;20187;-73
2022/01/02 04:33:03;;;;;;;9.30;3.60;;;;;;;;;;5112891;27;20553;-73
2022/01/02 04:35:29;;;;;;;16.45;4.88;;;;;;;;;;5111293;27;20287;-75
2022/01/02 04:37:54;;;;;;;13.20;5.00;;;;;;;;;;5107553;27;20532;-74
2022/01/02 04:40:19;;;;;;;9.95;3.97;;;;;;;;;;5109527;27;20179;-72
2022/01/02 04:42:44;;;;;;;8.27;3.78;;;;;;;;;;5111403;28;20175;-72
2022/01/02 04:45:09;;;;;;;8.98;4.47;;;;;;;;;;5094173;28;20726;-73
2022/01/02 04:47:35;;;;;;;7.65;3.90;;;;;;;;;;5111537;28;20212;-73
2022/01/02 04:50:00;;;;;;;11.65;4.38;;;;;;;;;;5109457;28;20189;-73
2022/01/02 04:52:25;;;;;;;5.30;3.47;;;;;;;;;;5109370;28;20183;-73
2022/01/02 04:54:50;;;;;;;7.50;3.42;;;;;;;;;;5088358;28;20210;-72
2022/01/02 04:57:16;;;;;;;5.68;4.15;;;;;;;;;;5106206;28;20175;-72
2022/01/02 04:59:41;;;;;;;8.18;4.03;;;;;;;;;;5109393;28;20617;-73
2022/01/02 05:02:06;;;;;;;7.97;3.63;;;;;;;;;;5108485;28;20183;-74
2022/01/02 05:04:31;;;;;;;14.18;4.70;;;;;;;;;;5091988;28;20223;-74
2022/01/02 05:06:57;;;;;;;9.55;4.57;;;;;;;;;;5109653;28;20720;-74
2022/01/02 05:09:22;;;;;;;13.38;4.13;;;;;;;;;;5113977;28;21597;-73
2022/01/02 05:11:47;;;;;;;9.48;4.50;;;;;;;;;;5110168;28;20244;-74
2022/01/02 05:14:12;;;;;;;8.45;3.53;;;;;;;;;;5094402;28;20202;-73
2022/01/02 05:16:37;;;;;;;7.65;3.80;;;;;;;;;;5094206;28;20179;-73
2022/01/02 05:19:03;;;;;;;11.23;3.97;;;;;;;;;;5113207;28;20666;-74
2022/01/02 05:21:28;;;;;;;6.20;3.85;;;;;;;;;;5110317;28;20441;-73
2022/01/02 05:23:53;;;;;;;9.60;3.45;;;;;;;;;;5110150;28;20203;-73
2022/01/02 05:26:18;;;;;;;9.07;4.10;;;;;;;;;;5108853;28;20541;-73
2022/01/02 05:28:44;;;;;;;8.13;3.53;;;;;;;;;;5092424;28;20175;-73
2022/01/02 05:31:09;;;;;;;11.90;4.22;;;;;;;;;;5109917;28;20183;-74
2022/01/02 05:33:34;;;;;;;10.07;4.05;;;;;;;;;;5110608;28;20235;-73
2022/01/02 05:35:59;;;;;;;6.80;3.97;;;;;;;;;;5112151;28;21678;-73
2022/01/02 05:38:24;;;;;;;10.13;3.95;;;;;;;;;;5109409;28;20669;-73
2022/01/02 05:40:52;;;;;;;8.13;4.10;;;;;;;;;;5110004;28;20179;-73
2022/01/02 05:43:17;;;;;;;7.70;3.92;;;;;;;;;;5108250;28;20175;-73
2022/01/02 05:45:42;;;;;;;8.48;4.40;;;;;;;;;;5107067;27;20230;-74
2022/01/02 05:48:08;;;;;;;10.52;5.22;;;;;;;;;;5114750;27;20183;-74
2022/01/02 05:50:33;;;;;;;8.90;3.45;;;;;;;;;;5120430;27;20330;-73
2022/01/02 05:52:58;;;;;;;11.13;4.40;;;;;;;;;;5113951;27;20385;-73
2022/01/02 05:55:23;;;;;;;8.68;4.00;;;;;;;;;;5114908;27;20218;-74
2022/01/02 05:57:49;;;;;;;7.93;3.90;;;;;;;;;;5114118;27;20182;-73
2022/01/02 06:00:14;;;;;;;8.55;3.58;;;;;;;;;;5112570;27;20270;-73
2022/01/02 06:02:39;;;;;;;8.13;4.38;;;;;;;;;;5114859;27;20251;-74
2022/01/02 06:05:06;;;;;;;6.10;3.55;;;;;;;;;;5104094;22;20614;-70
2022/01/02 06:07:35;;;;;;;6.70;3.88;;;;;;;;;;5070870;28;20206;-68
2022/01/02 06:10:02;;;;;;;7.15;3.60;;;;;;;;;;5071399;28;20198;-70
2022/01/02 06:12:27;;;;;;;8.98;3.58;;;;;;;;;;5071683;28;20299;-69
2022/01/02 06:14:52;;;;;;;9.07;3.83;;;;;;;;;;5069133;28;20654;-70
2022/01/02 06:17:17;;;;;;;6.20;3.85;;;;;;;;;;5071163;28;20605;-70
2022/01/02 06:19:43;;;;;;;7.57;3.63;;;;;;;;;;5068763;28;20226;-69
2022/01/02 06:22:08;;;;;;;10.63;4.45;;;;;;;;;;5069187;28;20203;-70
2022/01/02 06:24:33;;;;;;;6.82;3.75;;;;;;;;;;5068076;28;20238;-69
2022/01/02 06:26:58;;;;;;;5.97;3.63;;;;;;;;;;5071006;28;20526;-69
2022/01/02 06:29:23;;;;;;;4.03;3.40;;;;;;;;;;5069659;28;20214;-68
2022/01/02 06:31:49;;;;;;;8.10;3.40;;;;;;;;;;5071258;28;20172;-70
2022/01/02 06:34:14;;;;;;;6.88;3.47;;;;;;;;;;5067495;28;20205;-69
2022/01/02 06:36:39;;;;;;;6.40;4.45;;;;;;;;;;5069556;28;20192;-70
2022/01/02 06:39:04;;;;;;;10.60;3.65;;;;;;;;;;5068733;28;20269;-72
2022/01/02 06:41:29;;;;;;;8.10;3.55;;;;;;;;;;5068898;28;21030;-69
2022/01/02 06:43:55;;;;;;;7.50;4.07;;;;;;;;;;5067781;28;20295;-70
2022/01/02 06:46:20;;;;;;;13.20;5.70;;;;;;;;;;5069739;28;20976;-72
2022/01/02 06:48:45;;;;;;;9.65;4.57;;;;;;;;;;5070451;28;20183;-70
2022/01/02 06:51:11;;;;;;;7.10;4.38;;;;;;;;;;5068008;28;20192;-70
2022/01/02 06:53:36;;;;;;;7.32;3.20;;;;;;;;;;5068842;28;20182;-70
2022/01/02 06:56:01;;;;;;;9.32;4.47;;;;;;;;;;5067827;28;20241;-69
2022/01/02 06:58:26;;;;;;;11.88;4.57;;;;;;;;;;5067772;28;20267;-70
2022/01/02 07:00:52;;;;;;;6.72;3.65;;;;;;;;;;5068322;28;20179;-70
2022/01/02 07:03:17;;;;;;;5.17;3.50;;;;;;;;;;5068202;28;20183;-71
2022/01/02 07:05:42;;;;;;;6.97;3.75;;;;;;;;;;5069254;28;20219;-70
2022/01/02 07:08:07;;;;;;;5.70;3.85;;;;;;;;;;5068338;28;20196;-70
2022/01/02 07:10:33;;;;;;;7.07;3.55;;;;;;;;;;5067245;28;20241;-70
2022/01/02 07:12:58;;;;;;;5.95;3.50;;;;;;;;;;5049713;28;20848;-70
2022/01/02 07:15:23;;;;;;;7.75;3.45;;;;;;;;;;5068209;28;20681;-71
2022/01/02 07:17:48;;;;;;;8.07;4.15;;;;;;;;;;5072234;28;20168;-71
2022/01/02 07:20:13;;;;;;;5.70;3.17;;;;;;;;;;5071961;28;20184;-72
2022/01/02 07:22:40;;;;;;;11.32;4.50;;;;;;;;;;5068168;28;20265;-71
2022/01/02 07:25:06;;;;;;;9.33;3.60;;;;;;;;;;5066715;28;20239;-71
2022/01/02 07:27:31;;;;;;;5.63;3.08;;;;;;;;;;5068268;28;20641;-70
2022/01/02 07:29:56;;;;;;;8.13;3.53;;;;;;;;;;5068420;28;20279;-71
2022/01/02 07:32:22;;;;;;;8.27;4.23;;;;;;;;;;5067113;28;20810;-70
2022/01/02 07:34:47;;;;;;;7.25;3.30;;;;;;;;;;5068237;28;20693;-71
2022/01/02 07:37:13;;;;;;;7.87;3.37;;;;;;;;;;5067301;28;20173;-71
2022/01/02 07:39:38;;;;;;;7.83;3.40;;;;;;;;;;5068029;28;20179;-70
2022/01/02 07:42:04;;;;;;;6.28;2.85;;;;;;;;;;5069183;28;20188;-71
2022/01/02 07:44:29;;;;;;;5.22;2.83;;;;;;;;;;5066819;28;20204;-72
2022/01/02 07:46:54;;;;;;;6.38;3.25;;;;;;;;;;5066084;28;20891;-72
2022/01/02 07:49:19;;;;;;;8.95;3.35;;;;;;;;;;5070219;28;20211;-70
2022/01/02 07:51:44;;;;;;;9.48;3.85;;;;;;;;;;5067664;28;21319;-70
2022/01/02 07:54:12;;;;;;;6.13;3.67;;;;;;;;;;5067537;28;20199;-71
2022/01/02 07:56:37;;;;;;;8.25;3.42;;;;;;;;;;5067266;28;20215;-71
2022/01/02 07:59:03;;;;;;;6.70;3.30;;;;;;;;;;5068882;28;20255;-72
2022/01/02 08:01:28;;;;;;;6.63;3.23;;;;;;;;;;5050986;28;20267;-71
2022/01/02 08:03:53;;;;;;;6.10;2.97;;;;;;;;;;5073003;28;20718;-70
2022/01/02 08:06:18;;;;;;;9.23;3.15;;;;;;;;;;5068491;28;20434;-69
2022/01/02 08:08:45;;;;;;;9.00;3.30;;;;;;;;;;5069050;28;20184;-72
2022/01/02 08:11:10;;;;;;;7.03;3.20;;;;;;;;;;5067443;28;20184;-69
2022/01/02 08:13:35;;;;;;;7.50;4.23;;;;;;;;;;5067427;28;20190;-69
2022/01/02 08:16:00;;;;;;;7.13;3.37;;;;;;;;;;5069079;28;20242;-72
2022/01/02 08:18:25;;;;;;;6.47;3.60;;;;;;;;;;5073752;28;20184;-71
2022/01/02 08:20:51;;;;;;;6.03;3.23;;;;;;;;;;5067891;28;20181;-71
2022/01/02 08:23:16;;;;;;;4.60;3.07;;;;;;;;;;5067151;28;20641;-72
2022/01/02 08:25:41;;;;;;;5.07;3.63;;;;;;;;;;5066164;28;20250;-70
2022/01/02 08:28:07;;;;;;;5.75;3.53;;;;;;;;;;5065542;28;20761;-70
2022/01/02 08:30:32;;;;;;;5.67;3.43;;;;;;;;;;5067079;28;20208;-71
2022/01/02 08:32:57;;;;;;;7.47;4.10;;;;;;;;;;5066508;28;20195;-72
2022/01/02 08:35:22;;;;;;;6.07;3.58;;;;;;;;;;5066889;28;20203;-72
2022/01/02 08:37:48;;;;;;;8.02;3.35;;;;;;;;;;5067457;28;20168;-71
2022/01/02 08:40:13;;;;;;;6.70;3.75;;;;;;;;;;5048612;28;20237;-69
2022/01/02 08:42:38;;;;;;;8.02;3.60;;;;;;;;;;5066552;28;20180;-71
2022/01/02 08:45:04;;;;;;;6.07;3.80;;;;;;;;;;5065259;28;20199;-72
2022/01/02 08:47:30;;;;;;;7.32;3.30;;;;;;;;;;5069600;28;20184;-70
2022/01/02 08:49:55;;;;;;;7.28;3.42;;;;;;;;;;5068655;28;20263;-70
2022/01/02 08:52:20;;;;;;;6.32;4.18;;;;;;;;;;5067922;28;20186;-69
2022/01/02 08:54:45;;;;;;;8.88;4.30;;;;;;;;;;5067269;28;20208;-70
2022/01/02 08:57:10;;;;;;;7.95;4.47;;;;;;;;;;5082952;28;20565;-70
2022/01/02 08:59:36;;;;;;;5.55;4.00;;;;;;;;;;5083499;28;20177;-70
2022/01/02 09:02:01;;;;;;;8.43;4.20;;;;;;;;;;5080998;28;20180;-70
2022/01/02 09:04:26;;;;;;;9.07;4.50;;;;;;;;;;5078318;28;20250;-69
2022/01/02 09:06:51;;;;;;;7.30;4.15;;;;;;;;;;5051943;28;20184;-70
2022/01/02 09:09:17;;;;;;;7.47;4.13;;;;;;;;;;5067953;28;20186;-70
2022/01/02 09:11:43;;;;;;;7.95;4.30;;;;;;;;;;5049051;28;20563;-69
2022/01/02 09:14:08;;;;;;;7.68;4.63;;;;;;;;;;5067172;28;20203;-70
2022/01/02 09:16:36;;;;;;;6.63;4.20;;;;;;;;;;5067799;28;20553;-69
2022/01/02 09:19:01;;;;;;;9.13;4.43;;;;;;;;;;5070847;28;20235;-69
2022/01/02 09:21:26;;;;;;;6.18;3.92;;;;;;;;;;5068585;28;20712;-70
2022/01/02 09:23:52;;;;;;;8.52;4.63;;;;;;;;;;5070492;28;20244;-70
2022/01/02 09:26:17;;;;;;;6.70;4.57;;;;;;;;;;5071343;28;20646;-68
2022/01/02 09:28:42;;;;;;;7.63;4.53;;;;;;;;;;5071691;28;20184;-70
2022/01/02 09:31:07;;;;;;;9.05;6.00;;;;;;;;;;5071775;28;20273;-69
2022/01/02 09:33:32;;;;;;;9.85;4.53;;;;;;;;;;5051337;28;20557;-69
2022/01/02 09:35:58;;;;;;;6.53;4.80;;;;;;;;;;5070992;28;20211;-70
2022/01/02 09:38:23;;;;;;;5.43;4.35;;;;;;;;;;5070871;28;20676;-70
2022/01/02 09:40:48;;;;;;;7.03;3.92;;;;;;;;;;5068698;28;20176;-70
2022/01/02 09:43:17;;;;;;;4.72;4.05;;;;;;;;;;5069856;28;20184;-67
2022/01/02 09:45:45;;;;;;;6.75;4.20;;;;;;;;;;5069781;28;20685;-70
2022/01/02 09:48:11;;;;;;;8.00;4.30;;;;;;;;;;5073018;28;20285;-70
2022/01/02 09:50:38;;;;;;;6.68;5.05;;;;;;;;;;5075291;28;20583;-70
2022/01/02 09:53:03;;;;;;;5.65;4.65;;;;;;;;;;5070410;28;20688;-70
2022/01/02 09:55:28;;;;;;;8.02;4.35;;;;;;;;;;5054627;28;20300;-69
2022/01/02 09:57:58;;;;;;;8.38;4.53;;;;;;;;;;5070334;28;20177;-68
2022/01/02 10:00:23;;;;;;;8.52;5.05;;;;;;;;;;5071554;28;20254;-69
2022/01/02 10:03:05;;;;;;;10.35;5.30;;;;;;;;;;5073631;28;20182;-70
2022/01/02 10:05:48;;;;;;;9.45;5.20;;;;;;;;;;5069115;28;20218;-73
2022/01/02 10:08:23;;;;;;;7.70;5.28;;;;;;;;;;5074973;28;20191;-68
2022/01/02 10:10:57;;;;;;;9.73;4.35;;;;;;;;;;5070253;28;20285;-70
2022/01/02 10:13:35;;;;;;;10.68;4.40;;;;;;;;;;5073790;28;20188;-69
2022/01/02 10:16:00;;;;;;;7.78;4.32;;;;;;;;;;5071604;28;20645;-69
2022/01/02 10:18:27;;;;;;;7.97;4.20;;;;;;;;;;5077777;28;21183;-72
2022/01/02 10:20:52;;;;;;;9.75;4.90;;;;;;;;;;5072937;28;20428;-70
2022/01/02 10:23:22;;;;;;;11.32;4.35;;;;;;;;;;5071338;28;20667;-70
2022/01/02 10:25:49;;;;;;;7.28;4.30;;;;;;;;;;5070841;28;20276;-72
2022/01/02 10:28:22;;;;;;;7.05;4.57;;;;;;;;;;5071333;28;20200;-71
2022/01/02 10:30:48;;;;;;;10.18;5.15;;;;;;;;;;5073198;28;20176;-70
2022/01/02 10:33:13;;;;;;;7.55;4.93;;;;;;;;;;5068441;28;20261;-70
2022/01/02 10:35:40;;;;;;;10.63;4.97;;;;;;;;;;5070784;28;20222;-71
2022/01/02 10:38:06;;;;;;;11.00;5.10;;;;;;;;;;5072237;28;20188;-71
2022/01/02 10:40:32;;;;;;;8.55;5.03;;;;;;;;;;5070577;28;20172;-69
2022/01/02 10:42:58;;;;;;;10.75;5.40;;;;;;;;;;5072347;28;20184;-71
2022/01/02 10:45:31;;;;;;;7.07;4.45;;;;;;;;;;5067366;28;20704;-71
2022/01/02 10:47:56;;;;;;;9.25;4.72;;;;;;;;;;5071071;28;20184;-70
2022/01/02 10:50:22;;;;;;;8.35;4.20;;;;;;;;;;5068377;28;20192;-70
2022/01/02 10:52:47;;;;;;;8.52;4.90;;;;;;;;;;5072305;28;20181;-70
2022/01/02 10:55:12;;;;;;;10.93;5.00;;;;;;;;;;5069619;28;20724;-70
2022/01/02 10:57:38;;;;;;;8.23;4.80;;;;;;;;;;5070488;28;20213;-71
2022/01/02 11:00:04;;;;;;;9.80;4.53;;;;;;;;;;5068363;28;20529;-70
2022/01/02 11:02:29;;;;;;;8.55;4.53;;;;;;;;;;5071802;28;21099;-71
2022/01/02 11:04:59;;;;;;;10.00;4.65;;;;;;;;;;5057147;28;20715;-70
2022/01/02 11:07:25;;;;;;;6.95;4.22;;;;;;;;;;5071346;28;20683;-70
2022/01/02 11:09:54;;;;;;;7.45;4.43;;;;;;;;;;5068505;28;20184;-70
2022/01/02 11:12:20;;;;;;;10.80;5.85;;;;;;;;;;5069792;28;20184;-69
2022/01/02 11:14:46;;;;;;;10.77;5.60;;;;;;;;;;5052561;28;20208;-71
2022/01/02 11:17:13;;;;;;;11.52;4.88;;;;;;;;;;5071597;28;20259;-71
2022/01/02 11:19:38;;;;;;;9.90;4.55;;;;;;;;;;5072608;28;20184;-71
2022/01/02 11:22:03;;;;;;;8.63;5.22;;;;;;;;;;5069044;28;20545;-72
2022/01/02 11:24:32;;;;;;;8.93;4.88;;;;;;;;;;5069821;28;20232;-69
2022/01/02 11:27:05;;;;;;;8.95;4.63;;;;;;;;;;5070154;28;20180;-70
2022/01/02 11:29:31;;;;;;;8.77;4.60;;;;;;;;;;5069987;28;21369;-71
2022/01/02 11:31:57;;;;;;;8.98;3.92;;;;;;;;;;5070602;28;20233;-70
2022/01/02 11:34:22;;;;;;;9.23;4.15;;;;;;;;;;5069986;28;21545;-70
2022/01/02 11:36:48;;;;;;;14.27;3.75;;;;;;;;;;5075547;28;20180;-71
2022/01/02 11:39:13;;;;;;;11.73;4.60;;;;;;;;;;5069872;28;20188;-72
2022/01/02 11:41:42;;;;;;;11.10;3.97;;;;;;;;;;5068313;28;20185;-70
2022/01/02 11:44:14;;;;;;;13.50;3.88;;;;;;;;;;5069735;28;20892;-71
2022/01/02 11:47:11;;;;;;;12.02;3.90;;;;;;;;;;5066561;28;20180;-70
2022/01/02 11:49:38;;;;;;;13.52;4.82;;;;;;;;;;5027896;28;20199;-71
2022/01/02 11:52:09;;;;;;;10.50;3.92;;;;;;;;;;5069812;28;20572;-69
2022/01/02 11:54:43;;;;;;;17.05;4.38;;;;;;;;;;5067997;28;20722;-71
2022/01/02 11:57:12;;;;;;;16.08;4.30;;;;;;;;;;5070222;28;20182;-72
2022/01/02 11:59:40;;;;;;;16.27;3.90;;;;;;;;;;5068708;28;20271;-70
2022/01/02 12:02:09;;;;;;;12.63;4.07;;;;;;;;;;5068611;28;20595;-71
2022/01/02 12:04:52;;;;;;;20.13;4.60;;;;;;;;;;5084096;22;20590;-69
2022/01/02 12:07:33;;;;;;;10.48;3.22;;;;;;;;;;5070112;28;20188;-69
2022/01/02 12:10:16;;;;;;;13.82;3.30;;;;;;;;;;5068852;28;20263;-70
2022/01/02 12:13:00;;;;;;;18.05;5.20;;;;;;;;;;5051618;28;20251;-70
2022/01/02 12:15:34;;;;;;;17.65;3.75;;;;;;;;;;5069499;28;20214;-70
2022/01/02 12:18:19;;;;;;;14.18;3.08;;;;;;;;;;5070287;28;20954;-70
2022/01/02 12:20:54;;;;;;;12.93;3.63;;;;;;;;;;5069835;28;20243;-70
2022/01/02 12:23:32;;;;;;;10.68;3.00;;;;;;;;;;5066837;28;20559;-69
2022/01/02 12:25:58;;;;;;;12.80;3.33;;;;;;;;;;5068893;28;20744;-70
2022/01/02 12:28:23;;;;;;;8.70;3.05;;;;;;;;;;5067009;28;20184;-70
2022/01/02 12:30:51;;;;;;;9.63;3.95;;;;;;;;;;5067878;28;20237;-70
2022/01/02 12:33:27;;;;;;;16.73;4.45;;;;;;;;;;5071073;28;20181;-70
2022/01/02 12:35:52;;;;;;;17.45;3.55;;;;;;;;;;5066502;28;20247;-69
2022/01/02 12:38:18;;;;;;;12.40;3.40;;;;;;;;;;5064460;28;20356;-70
2022/01/02 12:40:43;;;;;;;18.25;4.53;;;;;;;;;;5067716;28;20192;-70
2022/01/02 12:43:09;;;;;;;11.15;3.35;;;;;;;;;;5068129;28;20204;-70
2022/01/02 12:45:35;;;;;;;13.70;3.60;;;;;;;;;;5067723;28;20223;-70
2022/01/02 12:48:00;;;;;;;12.18;3.70;;;;;;;;;;5068960;28;20319;-71
2022/01/02 12:50:27;;;;;;;13.60;3.63;;;;;;;;;;5070180;28;21286;-70
2022/01/02 12:52:53;;;;;;;14.60;4.95;;;;;;;;;;5048458;28;20209;-69
2022/01/02 12:55:18;;;;;;;11.80;3.38;;;;;;;;;;5072518;28;20208;-70
2022/01/02 12:57:44;;;;;;;15.75;3.80;;;;;;;;;;5070250;28;20176;-70
2022/01/02 13:00:09;;;;;;;17.80;4.35;;;;;;;;;;5070870;28;20170;-71
2022/01/02 13:02:35;;;;;;;15.13;4.30;;;;;;;;;;5071411;28;20676;-69
2022/01/02 13:05:03;;;;;;;14.90;4.25;;;;;;;;;;5071764;28;20226;-70
2022/01/02 13:07:29;;;;;;;13.25;4.70;;;;;;;;;;5073020;28;20188;-70
2022/01/02 13:09:56;;;;;;;15.80;4.03;;;;;;;;;;5087576;28;20188;-70
2022/01/02 13:12:21;;;;;;;18.85;4.85;;;;;;;;;;5073549;28;20185;-69
2022/01/02 13:14:47;;;;;;;15.65;4.05;;;;;;;;;;5072992;28;20223;-68
2022/01/02 13:17:14;;;;;;;17.92;4.13;;;;;;;;;;5069378;28;20557;-68
2022/01/02 13:19:44;;;;;;;15.35;4.22;;;;;;;;;;5074399;28;20685;-69
2022/01/02 13:22:14;;;;;;;11.57;3.75;;;;;;;;;;5075630;28;20173;-68
2022/01/02 13:24:39;;;;;;;15.02;3.60;;;;;;;;;;5072543;28;20200;-68
2022/01/02 13:27:05;;;;;;;8.38;3.10;;;;;;;;;;5070074;28;20193;-69
2022/01/02 13:29:30;;;;;;;12.68;3.22;;;;;;;;;;5071653;28;20298;-68
2022/01/02 13:31:57;;;;;;;19.27;3.75;;;;;;;;;;5070636;28;20184;-68
2022/01/02 13:34:26;;;;;;;11.85;3.20;;;;;;;;;;5073666;28;20386;-69
2022/01/02 13:37:01;;;;;;;15.43;3.65;;;;;;;;;;5072610;28;20168;-68
2022/01/02 13:39:46;;;;;;;12.48;2.90;;;;;;;;;;5072322;28;20180;-69
2022/01/02 13:42:12;;;;;;;15.93;3.85;;;;;;;;;;5070397;28;20209;-68
2022/01/02 13:44:38;;;;;;;13.48;3.00;;;;;;;;;;5075060;28;20245;-69
2022/01/02 13:47:03;;;;;;;11.88;3.10;;;;;;;;;;5077336;28;20605;-68
2022/01/02 13:49:40;;;;;;;16.17;2.92;;;;;;;;;;5062412;28;20183;-68
2022/01/02 13:52:05;;;;;;;12.82;3.42;;;;;;;;;;5076385;28;20595;-68
2022/01/02 13:54:31;;;;;;;16.10;3.85;;;;;;;;;;5074557;28;20250;-69
2022/01/02 13:56:56;;;;;;;19.38;3.40;;;;;;;;;;5073610;28;20267;-68
2022/01/02 13:59:26;;;;;;;17.67;4.40;;;;;;;;;;5060141;28;20172;-68
2022/01/02 14:01:51;;;;;;;7.60;2.38;;;;;;;;;;5072610;28;20240;-69
2022/01/02 14:04:19;;;;;;;16.00;3.33;;;;;;;;;;5075869;28;20176;-69
2022/01/02 14:06:44;;;;;;;16.73;4.50;;;;;;;;;;5068983;28;20656;-69
2022/01/02 14:09:11;;;;;;;18.20;3.50;;;;;;;;;;5071296;28;20176;-69
2022/01/02 14:11:38;;;;;;;11.40;3.28;;;;;;;;;;5070572;28;21531;-68
2022/01/02 14:14:47;;;;;;;16.85;3.38;;;;;;;;;;5069178;28;20179;-67
2022/01/02 14:17:25;;;;;;;14.30;3.37;;;;;;;;;;5053474;28;20657;-69
2022/01/02 14:19:51;;;;;;;12.90;3.40;;;;;;;;;;5054514;28;20291;-68
2022/01/02 14:22:22;;;;;;;12.83;3.40;;;;;;;;;;5052289;28;20188;-69
2022/01/02 14:24:48;;;;;;;8.03;2.13;;;;;;;;;;5072086;28;20228;-68
2022/01/02 14:27:14;;;;;;;6.90;1.83;;;;;;;;;;5069461;28;20276;-68
2022/01/02 14:29:39;;;;;;;12.20;2.67;;;;;;;;;;5069367;28;20180;-68
2022/01/02 14:32:05;;;;;;;17.67;2.57;;;;;;;;;;5070735;28;20168;-69
2022/01/02 14:34:30;;;;;;;11.67;3.13;;;;;;;;;;5053985;28;20203;-68
2022/01/02 14:36:55;;;;;;;9.03;2.33;;;;;;;;;;5071554;28;20189;-69
2022/01/02 14:39:21;;;;;;;13.97;2.50;;;;;;;;;;5070329;28;20185;-69
2022/01/02 14:41:46;;;;;;;12.47;2.43;;;;;;;;;;5069965;28;20188;-68
2022/01/02 14:44:12;;;;;;;14.40;3.23;;;;;;;;;;5068407;28;20195;-68
2022/01/02 14:46:37;;;;;;;13.77;3.07;;;;;;;;;;5068072;28;20185;-68